Viper, Kentucky
Current Conditions -  °F | °C
As of 3:15 AM on Monday 26 Jan 2015 (Local Time) from KI35 Reporting Station
Overcast Overcast  
Wind Chill: 36°   Ceiling: 1700
Heat Index: 39°   Visibility: 10mi
Dew Point: 37°   Wind: 5mph
Humidity: 93%   Direction: 260°W
Pressure: 29.64"   Gusts: NA
Location:  37.18°N, 83.15°W
Report Text: KI35 260815Z AUTO 26004KT 10SM BKN017 OVC024 04/03 A2964 RMK AO1
Loading
Personal Weather Stations






























Interactive Weather Map New forecast layout! Learn more

10-Day Weather Forecast

Advertisements
Track Severe Weather on mobile